sensor_id;sensor_type;location;lat;lon;timestamp;P1;durP1;ratioP1;P2;durP2;ratioP2
2476;SDS011;1249;51.270;6.756;2022-10-17T00:00:37;31.80;;;28.93;;
2476;SDS011;1249;51.270;6.756;2022-10-17T00:03:04;28.97;;;26.87;;
2476;SDS011;1249;51.270;6.756;2022-10-17T00:05:31;33.90;;;31.47;;
2476;SDS011;1249;51.270;6.756;2022-10-17T00:07:57;36.80;;;34.43;;
2476;SDS011;1249;51.270;6.756;2022-10-17T00:10:24;40.30;;;37.60;;
2476;SDS011;1249;51.270;6.756;2022-10-17T00:12:51;25.00;;;22.70;;
2476;SDS011;1249;51.270;6.756;2022-10-17T00:15:19;31.93;;;30.43;;
2476;SDS011;1249;51.270;6.756;2022-10-17T00:17:46;22.97;;;20.90;;
2476;SDS011;1249;51.270;6.756;2022-10-17T00:20:13;32.93;;;30.57;;
2476;SDS011;1249;51.270;6.756;2022-10-17T00:22:41;29.23;;;27.37;;
2476;SDS011;1249;51.270;6.756;2022-10-17T00:25:08;30.80;;;28.97;;
2476;SDS011;1249;51.270;6.756;2022-10-17T00:27:35;32.27;;;30.27;;
2476;SDS011;1249;51.270;6.756;2022-10-17T00:30:02;26.70;;;24.83;;
2476;SDS011;1249;51.270;6.756;2022-10-17T00:32:31;34.90;;;32.80;;
2476;SDS011;1249;51.270;6.756;2022-10-17T00:34:58;30.53;;;28.40;;
2476;SDS011;1249;51.270;6.756;2022-10-17T00:37:25;34.17;;;31.63;;
2476;SDS011;1249;51.270;6.756;2022-10-17T00:39:52;32.93;;;30.77;;
2476;SDS011;1249;51.270;6.756;2022-10-17T00:42:19;40.30;;;37.37;;
2476;SDS011;1249;51.270;6.756;2022-10-17T00:45:05;33.50;;;31.53;;
2476;SDS011;1249;51.270;6.756;2022-10-17T00:47:39;27.13;;;25.07;;
2476;SDS011;1249;51.270;6.756;2022-10-17T00:50:09;24.57;;;23.07;;
2476;SDS011;1249;51.270;6.756;2022-10-17T00:52:38;30.03;;;28.07;;
2476;SDS011;1249;51.270;6.756;2022-10-17T00:55:07;32.67;;;30.67;;
2476;SDS011;1249;51.270;6.756;2022-10-17T00:57:37;33.30;;;31.30;;
2476;SDS011;1249;51.270;6.756;2022-10-17T01:00:06;33.37;;;31.17;;
2476;SDS011;1249;51.270;6.756;2022-10-17T01:02:35;26.70;;;24.90;;
2476;SDS011;1249;51.270;6.756;2022-10-17T01:05:04;31.13;;;29.73;;
2476;SDS011;1249;51.270;6.756;2022-10-17T01:07:32;34.60;;;32.53;;
2476;SDS011;1249;51.270;6.756;2022-10-17T01:09:59;25.33;;;23.83;;
2476;SDS011;1249;51.270;6.756;2022-10-17T01:12:27;29.50;;;27.27;;
2476;SDS011;1249;51.270;6.756;2022-10-17T01:15:05;24.87;;;22.93;;
2476;SDS011;1249;51.270;6.756;2022-10-17T01:17:39;31.73;;;29.83;;
2476;SDS011;1249;51.270;6.756;2022-10-17T01:20:27;26.20;;;24.20;;
2476;SDS011;1249;51.270;6.756;2022-10-17T01:23:17;16.80;;;15.33;;
2476;SDS011;1249;51.270;6.756;2022-10-17T01:25:55;23.77;;;22.67;;
2476;SDS011;1249;51.270;6.756;2022-10-17T01:28:44;22.53;;;21.50;;
2476;SDS011;1249;51.270;6.756;2022-10-17T01:31:26;21.63;;;20.10;;
2476;SDS011;1249;51.270;6.756;2022-10-17T01:33:58;19.67;;;17.93;;
2476;SDS011;1249;51.270;6.756;2022-10-17T01:36:33;32.63;;;30.47;;
2476;SDS011;1249;51.270;6.756;2022-10-17T01:39:05;28.63;;;26.57;;
2476;SDS011;1249;51.270;6.756;2022-10-17T01:41:40;25.43;;;23.57;;
2476;SDS011;1249;51.270;6.756;2022-10-17T01:44:12;23.93;;;22.33;;
2476;SDS011;1249;51.270;6.756;2022-10-17T01:46:47;31.43;;;28.87;;
2476;SDS011;1249;51.270;6.756;2022-10-17T01:49:16;22.20;;;20.63;;
2476;SDS011;1249;51.270;6.756;2022-10-17T01:51:47;22.27;;;20.67;;
2476;SDS011;1249;51.270;6.756;2022-10-17T01:54:17;36.67;;;34.27;;
2476;SDS011;1249;51.270;6.756;2022-10-17T01:56:48;19.80;;;18.60;;
2476;SDS011;1249;51.270;6.756;2022-10-17T01:59:19;20.43;;;19.63;;
2476;SDS011;1249;51.270;6.756;2022-10-17T02:01:51;28.17;;;25.93;;
2476;SDS011;1249;51.270;6.756;2022-10-17T02:04:20;14.47;;;13.23;;
2476;SDS011;1249;51.270;6.756;2022-10-17T02:06:48;30.73;;;28.97;;
2476;SDS011;1249;51.270;6.756;2022-10-17T02:09:15;16.83;;;15.43;;
2476;SDS011;1249;51.270;6.756;2022-10-17T02:11:44;29.10;;;26.80;;
2476;SDS011;1249;51.270;6.756;2022-10-17T02:14:31;18.07;;;16.30;;
2476;SDS011;1249;51.270;6.756;2022-10-17T02:17:11;21.10;;;20.00;;
2476;SDS011;1249;51.270;6.756;2022-10-17T02:19:45;26.87;;;25.53;;
2476;SDS011;1249;51.270;6.756;2022-10-17T02:22:24;15.63;;;14.83;;
2476;SDS011;1249;51.270;6.756;2022-10-17T02:24:59;24.43;;;22.27;;
2476;SDS011;1249;51.270;6.756;2022-10-17T02:27:34;29.23;;;27.63;;
2476;SDS011;1249;51.270;6.756;2022-10-17T02:30:09;21.37;;;19.47;;
2476;SDS011;1249;51.270;6.756;2022-10-17T02:32:43;18.83;;;17.77;;
2476;SDS011;1249;51.270;6.756;2022-10-17T02:35:16;19.63;;;18.20;;
2476;SDS011;1249;51.270;6.756;2022-10-17T02:37:45;31.87;;;30.13;;
2476;SDS011;1249;51.270;6.756;2022-10-17T02:40:14;33.43;;;30.97;;
2476;SDS011;1249;51.270;6.756;2022-10-17T02:42:43;36.23;;;33.97;;
2476;SDS011;1249;51.270;6.756;2022-10-17T02:45:12;26.93;;;25.00;;
2476;SDS011;1249;51.270;6.756;2022-10-17T02:47:42;28.50;;;26.77;;
2476;SDS011;1249;51.270;6.756;2022-10-17T02:50:15;15.40;;;14.50;;
2476;SDS011;1249;51.270;6.756;2022-10-17T02:52:44;15.40;;;14.63;;
2476;SDS011;1249;51.270;6.756;2022-10-17T02:55:17;34.03;;;31.40;;
2476;SDS011;1249;51.270;6.756;2022-10-17T02:57:47;21.97;;;20.27;;
2476;SDS011;1249;51.270;6.756;2022-10-17T03:00:17;31.33;;;29.37;;
2476;SDS011;1249;51.270;6.756;2022-10-17T03:02:47;24.27;;;22.93;;
2476;SDS011;1249;51.270;6.756;2022-10-17T03:05:16;27.23;;;25.03;;
2476;SDS011;1249;51.270;6.756;2022-10-17T03:07:45;17.13;;;15.23;;
2476;SDS011;1249;51.270;6.756;2022-10-17T03:10:12;28.97;;;26.37;;
2476;SDS011;1249;51.270;6.756;2022-10-17T03:12:39;29.53;;;27.13;;
2476;SDS011;1249;51.270;6.756;2022-10-17T03:15:06;26.67;;;24.33;;
2476;SDS011;1249;51.270;6.756;2022-10-17T03:17:34;20.80;;;18.77;;
2476;SDS011;1249;51.270;6.756;2022-10-17T03:20:02;25.03;;;23.60;;
2476;SDS011;1249;51.270;6.756;2022-10-17T03:22:30;31.23;;;29.10;;
2476;SDS011;1249;51.270;6.756;2022-10-17T03:24:57;30.13;;;27.80;;
2476;SDS011;1249;51.270;6.756;2022-10-17T03:27:24;23.67;;;22.03;;
2476;SDS011;1249;51.270;6.756;2022-10-17T03:29:51;23.53;;;21.97;;
2476;SDS011;1249;51.270;6.756;2022-10-17T03:32:17;36.50;;;34.23;;
2476;SDS011;1249;51.270;6.756;2022-10-17T03:34:44;29.10;;;27.07;;
2476;SDS011;1249;51.270;6.756;2022-10-17T03:37:12;32.20;;;30.07;;
2476;SDS011;1249;51.270;6.756;2022-10-17T03:39:39;27.73;;;26.33;;
2476;SDS011;1249;51.270;6.756;2022-10-17T03:42:05;29.10;;;27.43;;
2476;SDS011;1249;51.270;6.756;2022-10-17T03:44:32;26.90;;;25.20;;
2476;SDS011;1249;51.270;6.756;2022-10-17T03:46:59;25.87;;;23.90;;
2476;SDS011;1249;51.270;6.756;2022-10-17T03:49:25;22.97;;;21.60;;
2476;SDS011;1249;51.270;6.756;2022-10-17T03:51:52;24.50;;;22.70;;
2476;SDS011;1249;51.270;6.756;2022-10-17T03:54:20;31.13;;;29.07;;
2476;SDS011;1249;51.270;6.756;2022-10-17T03:56:47;35.53;;;33.20;;
2476;SDS011;1249;51.270;6.756;2022-10-17T03:59:14;25.13;;;23.17;;
2476;SDS011;1249;51.270;6.756;2022-10-17T04:01:41;25.70;;;23.97;;
2476;SDS011;1249;51.270;6.756;2022-10-17T04:04:08;27.63;;;25.80;;
2476;SDS011;1249;51.270;6.756;2022-10-17T04:06:35;24.97;;;23.30;;
2476;SDS011;1249;51.270;6.756;2022-10-17T04:09:02;27.53;;;26.13;;
2476;SDS011;1249;51.270;6.756;2022-10-17T04:11:31;23.93;;;22.07;;
2476;SDS011;1249;51.270;6.756;2022-10-17T04:13:58;23.60;;;21.90;;
2476;SDS011;1249;51.270;6.756;2022-10-17T04:16:24;19.00;;;17.30;;
2476;SDS011;1249;51.270;6.756;2022-10-17T04:18:52;18.83;;;17.80;;
2476;SDS011;1249;51.270;6.756;2022-10-17T04:21:20;26.57;;;24.83;;
2476;SDS011;1249;51.270;6.756;2022-10-17T04:23:47;24.90;;;23.53;;
2476;SDS011;1249;51.270;6.756;2022-10-17T04:26:17;16.87;;;14.87;;
2476;SDS011;1249;51.270;6.756;2022-10-17T04:28:45;37.13;;;34.40;;
2476;SDS011;1249;51.270;6.756;2022-10-17T04:31:12;32.57;;;30.70;;
2476;SDS011;1249;51.270;6.756;2022-10-17T04:33:39;22.47;;;20.70;;
2476;SDS011;1249;51.270;6.756;2022-10-17T04:36:09;24.77;;;23.57;;
2476;SDS011;1249;51.270;6.756;2022-10-17T04:38:37;34.50;;;31.80;;
2476;SDS011;1249;51.270;6.756;2022-10-17T04:41:05;30.00;;;28.00;;
2476;SDS011;1249;51.270;6.756;2022-10-17T04:43:33;33.83;;;31.63;;
2476;SDS011;1249;51.270;6.756;2022-10-17T04:46:03;31.37;;;29.40;;
2476;SDS011;1249;51.270;6.756;2022-10-17T04:48:31;29.57;;;27.47;;
2476;SDS011;1249;51.270;6.756;2022-10-17T04:50:59;18.37;;;17.07;;
2476;SDS011;1249;51.270;6.756;2022-10-17T04:53:27;33.07;;;30.63;;
2476;SDS011;1249;51.270;6.756;2022-10-17T04:55:55;27.53;;;25.60;;
2476;SDS011;1249;51.270;6.756;2022-10-17T04:58:22;16.33;;;15.00;;
2476;SDS011;1249;51.270;6.756;2022-10-17T05:00:49;33.67;;;31.57;;
2476;SDS011;1249;51.270;6.756;2022-10-17T05:03:17;35.40;;;33.23;;
2476;SDS011;1249;51.270;6.756;2022-10-17T05:05:44;31.60;;;29.70;;
2476;SDS011;1249;51.270;6.756;2022-10-17T05:08:10;29.93;;;27.70;;
2476;SDS011;1249;51.270;6.756;2022-10-17T05:10:38;25.00;;;22.80;;
2476;SDS011;1249;51.270;6.756;2022-10-17T05:13:06;31.67;;;29.97;;
2476;SDS011;1249;51.270;6.756;2022-10-17T05:15:33;27.57;;;25.27;;
2476;SDS011;1249;51.270;6.756;2022-10-17T05:18:01;28.33;;;26.23;;
2476;SDS011;1249;51.270;6.756;2022-10-17T05:20:30;21.80;;;20.30;;
2476;SDS011;1249;51.270;6.756;2022-10-17T05:22:57;25.03;;;23.23;;
2476;SDS011;1249;51.270;6.756;2022-10-17T05:25:24;30.77;;;28.87;;
2476;SDS011;1249;51.270;6.756;2022-10-17T05:27:51;23.57;;;22.10;;
2476;SDS011;1249;51.270;6.756;2022-10-17T05:30:18;23.93;;;22.17;;
2476;SDS011;1249;51.270;6.756;2022-10-17T05:32:45;27.27;;;25.27;;
2476;SDS011;1249;51.270;6.756;2022-10-17T05:35:12;30.07;;;28.50;;
2476;SDS011;1249;51.270;6.756;2022-10-17T05:37:40;28.60;;;26.50;;
2476;SDS011;1249;51.270;6.756;2022-10-17T05:40:07;29.33;;;27.23;;
2476;SDS011;1249;51.270;6.756;2022-10-17T05:42:34;29.67;;;27.67;;
2476;SDS011;1249;51.270;6.756;2022-10-17T05:45:01;50.93;;;46.93;;
2476;SDS011;1249;51.270;6.756;2022-10-17T05:47:28;46.33;;;43.70;;
2476;SDS011;1249;51.270;6.756;2022-10-17T05:49:55;51.60;;;48.43;;
2476;SDS011;1249;51.270;6.756;2022-10-17T05:52:22;41.07;;;38.30;;
2476;SDS011;1249;51.270;6.756;2022-10-17T05:54:50;55.13;;;51.93;;
2476;SDS011;1249;51.270;6.756;2022-10-17T05:57:16;50.23;;;47.47;;
2476;SDS011;1249;51.270;6.756;2022-10-17T05:59:43;69.07;;;65.40;;
2476;SDS011;1249;51.270;6.756;2022-10-17T06:02:10;52.33;;;48.97;;
2476;SDS011;1249;51.270;6.756;2022-10-17T06:04:37;49.37;;;45.73;;
2476;SDS011;1249;51.270;6.756;2022-10-17T06:07:09;73.63;;;69.70;;
2476;SDS011;1249;51.270;6.756;2022-10-17T06:09:36;70.43;;;66.67;;
2476;SDS011;1249;51.270;6.756;2022-10-17T06:12:04;83.50;;;78.80;;
2476;SDS011;1249;51.270;6.756;2022-10-17T06:14:31;67.93;;;64.30;;
2476;SDS011;1249;51.270;6.756;2022-10-17T06:16:58;64.33;;;60.67;;
2476;SDS011;1249;51.270;6.756;2022-10-17T06:19:25;71.90;;;68.20;;
2476;SDS011;1249;51.270;6.756;2022-10-17T06:21:51;67.00;;;63.43;;
2476;SDS011;1249;51.270;6.756;2022-10-17T06:24:18;79.37;;;75.10;;
2476;SDS011;1249;51.270;6.756;2022-10-17T06:26:45;112.03;;;106.73;;
2476;SDS011;1249;51.270;6.756;2022-10-17T06:29:15;74.47;;;70.27;;
2476;SDS011;1249;51.270;6.756;2022-10-17T06:31:42;104.97;;;99.57;;
2476;SDS011;1249;51.270;6.756;2022-10-17T06:34:09;88.47;;;83.27;;
2476;SDS011;1249;51.270;6.756;2022-10-17T06:36:35;111.30;;;105.87;;
2476;SDS011;1249;51.270;6.756;2022-10-17T06:39:02;71.37;;;67.20;;
2476;SDS011;1249;51.270;6.756;2022-10-17T06:41:29;62.23;;;58.73;;
2476;SDS011;1249;51.270;6.756;2022-10-17T06:43:56;101.60;;;95.93;;
2476;SDS011;1249;51.270;6.756;2022-10-17T06:46:24;96.10;;;90.60;;
2476;SDS011;1249;51.270;6.756;2022-10-17T06:48:53;70.87;;;66.93;;
2476;SDS011;1249;51.270;6.756;2022-10-17T06:51:20;70.80;;;66.63;;
2476;SDS011;1249;51.270;6.756;2022-10-17T06:53:47;72.07;;;67.30;;
2476;SDS011;1249;51.270;6.756;2022-10-17T06:56:14;83.17;;;78.50;;
2476;SDS011;1249;51.270;6.756;2022-10-17T06:58:41;77.73;;;73.00;;
2476;SDS011;1249;51.270;6.756;2022-10-17T07:01:08;70.73;;;67.27;;
2476;SDS011;1249;51.270;6.756;2022-10-17T07:03:37;87.63;;;82.90;;
2476;SDS011;1249;51.270;6.756;2022-10-17T07:06:05;65.63;;;61.47;;
2476;SDS011;1249;51.270;6.756;2022-10-17T07:08:32;101.23;;;96.60;;
2476;SDS011;1249;51.270;6.756;2022-10-17T07:11:07;86.07;;;80.87;;
2476;SDS011;1249;51.270;6.756;2022-10-17T07:13:34;82.40;;;77.40;;
2476;SDS011;1249;51.270;6.756;2022-10-17T07:16:01;79.10;;;74.67;;
2476;SDS011;1249;51.270;6.756;2022-10-17T07:18:28;80.10;;;76.20;;
2476;SDS011;1249;51.270;6.756;2022-10-17T07:20:57;111.43;;;105.77;;
2476;SDS011;1249;51.270;6.756;2022-10-17T07:23:23;80.53;;;75.83;;
2476;SDS011;1249;51.270;6.756;2022-10-17T07:25:50;108.33;;;102.07;;
2476;SDS011;1249;51.270;6.756;2022-10-17T07:28:18;121.70;;;115.60;;
2476;SDS011;1249;51.270;6.756;2022-10-17T07:30:44;98.33;;;92.93;;
2476;SDS011;1249;51.270;6.756;2022-10-17T07:33:11;99.13;;;93.20;;
2476;SDS011;1249;51.270;6.756;2022-10-17T07:35:38;85.87;;;81.27;;
2476;SDS011;1249;51.270;6.756;2022-10-17T07:38:07;122.17;;;115.20;;
2476;SDS011;1249;51.270;6.756;2022-10-17T07:40:33;88.67;;;83.60;;
2476;SDS011;1249;51.270;6.756;2022-10-17T07:43:00;88.60;;;83.83;;
2476;SDS011;1249;51.270;6.756;2022-10-17T07:45:27;96.40;;;91.47;;
2476;SDS011;1249;51.270;6.756;2022-10-17T07:47:54;99.23;;;93.67;;
2476;SDS011;1249;51.270;6.756;2022-10-17T07:50:22;81.87;;;76.47;;
2476;SDS011;1249;51.270;6.756;2022-10-17T07:52:49;93.77;;;88.37;;
2476;SDS011;1249;51.270;6.756;2022-10-17T07:55:17;109.30;;;104.33;;
2476;SDS011;1249;51.270;6.756;2022-10-17T07:57:43;111.20;;;105.27;;
2476;SDS011;1249;51.270;6.756;2022-10-17T08:00:10;110.70;;;104.77;;
2476;SDS011;1249;51.270;6.756;2022-10-17T08:02:37;113.50;;;107.73;;
2476;SDS011;1249;51.270;6.756;2022-10-17T08:05:05;75.57;;;70.77;;
2476;SDS011;1249;51.270;6.756;2022-10-17T08:07:32;107.40;;;100.73;;
2476;SDS011;1249;51.270;6.756;2022-10-17T08:09:59;119.33;;;112.97;;
2476;SDS011;1249;51.270;6.756;2022-10-17T08:12:27;102.13;;;96.43;;
2476;SDS011;1249;51.270;6.756;2022-10-17T08:14:56;114.43;;;107.93;;
2476;SDS011;1249;51.270;6.756;2022-10-17T08:17:22;105.77;;;100.40;;
2476;SDS011;1249;51.270;6.756;2022-10-17T08:19:49;97.70;;;92.13;;
2476;SDS011;1249;51.270;6.756;2022-10-17T08:22:16;106.20;;;101.50;;
2476;SDS011;1249;51.270;6.756;2022-10-17T08:24:43;126.13;;;119.47;;
2476;SDS011;1249;51.270;6.756;2022-10-17T08:27:10;91.77;;;86.60;;
2476;SDS011;1249;51.270;6.756;2022-10-17T08:29:39;119.27;;;112.43;;
2476;SDS011;1249;51.270;6.756;2022-10-17T08:32:06;117.27;;;110.77;;
2476;SDS011;1249;51.270;6.756;2022-10-17T08:34:33;121.33;;;115.57;;
2476;SDS011;1249;51.270;6.756;2022-10-17T08:37:00;124.67;;;116.53;;
2476;SDS011;1249;51.270;6.756;2022-10-17T08:39:27;129.63;;;122.67;;
2476;SDS011;1249;51.270;6.756;2022-10-17T08:41:57;127.17;;;119.93;;
2476;SDS011;1249;51.270;6.756;2022-10-17T08:44:35;122.60;;;115.97;;
2476;SDS011;1249;51.270;6.756;2022-10-17T08:47:12;128.73;;;120.63;;
2476;SDS011;1249;51.270;6.756;2022-10-17T08:49:42;123.17;;;116.33;;
2476;SDS011;1249;51.270;6.756;2022-10-17T08:52:15;114.37;;;108.03;;
2476;SDS011;1249;51.270;6.756;2022-10-17T08:54:47;109.60;;;103.23;;
2476;SDS011;1249;51.270;6.756;2022-10-17T08:57:16;134.03;;;125.77;;
2476;SDS011;1249;51.270;6.756;2022-10-17T08:59:45;116.40;;;109.97;;
2476;SDS011;1249;51.270;6.756;2022-10-17T09:02:29;129.33;;;122.03;;
2476;SDS011;1249;51.270;6.756;2022-10-17T09:07:57;120.43;;;113.60;;
2476;SDS011;1249;51.270;6.756;2022-10-17T09:10:40;109.40;;;103.07;;
2476;SDS011;1249;51.270;6.756;2022-10-17T09:13:17;101.20;;;96.17;;
2476;SDS011;1249;51.270;6.756;2022-10-17T09:15:56;120.27;;;113.23;;
2476;SDS011;1249;51.270;6.756;2022-10-17T09:18:32;142.03;;;134.20;;
2476;SDS011;1249;51.270;6.756;2022-10-17T09:21:05;111.70;;;105.00;;
2476;SDS011;1249;51.270;6.756;2022-10-17T09:23:43;158.10;;;149.43;;
2476;SDS011;1249;51.270;6.756;2022-10-17T09:26:13;120.73;;;114.20;;
2476;SDS011;1249;51.270;6.756;2022-10-17T09:28:40;125.83;;;118.70;;
2476;SDS011;1249;51.270;6.756;2022-10-17T09:31:11;106.10;;;100.53;;
2476;SDS011;1249;51.270;6.756;2022-10-17T09:33:45;104.93;;;98.77;;
2476;SDS011;1249;51.270;6.756;2022-10-17T09:36:15;103.47;;;97.60;;
2476;SDS011;1249;51.270;6.756;2022-10-17T09:38:44;115.80;;;109.53;;
2476;SDS011;1249;51.270;6.756;2022-10-17T09:41:17;125.63;;;118.77;;
2476;SDS011;1249;51.270;6.756;2022-10-17T09:43:46;124.20;;;117.60;;
2476;SDS011;1249;51.270;6.756;2022-10-17T09:46:16;135.80;;;128.30;;
2476;SDS011;1249;51.270;6.756;2022-10-17T09:48:49;116.43;;;110.10;;
2476;SDS011;1249;51.270;6.756;2022-10-17T09:51:19;137.03;;;129.63;;
2476;SDS011;1249;51.270;6.756;2022-10-17T09:53:48;114.80;;;108.63;;
2476;SDS011;1249;51.270;6.756;2022-10-17T09:56:19;115.03;;;109.23;;
2476;SDS011;1249;51.270;6.756;2022-10-17T09:58:47;112.70;;;105.77;;
2476;SDS011;1249;51.270;6.756;2022-10-17T10:01:19;112.93;;;106.33;;
2476;SDS011;1249;51.270;6.756;2022-10-17T10:03:48;106.27;;;100.43;;
2476;SDS011;1249;51.270;6.756;2022-10-17T10:06:32;144.83;;;137.53;;
2476;SDS011;1249;51.270;6.756;2022-10-17T10:08:59;116.33;;;110.03;;
2476;SDS011;1249;51.270;6.756;2022-10-17T10:11:43;111.57;;;105.70;;
2476;SDS011;1249;51.270;6.756;2022-10-17T10:14:14;89.90;;;85.40;;
2476;SDS011;1249;51.270;6.756;2022-10-17T10:16:47;128.90;;;122.40;;
2476;SDS011;1249;51.270;6.756;2022-10-17T10:19:19;124.87;;;117.37;;
2476;SDS011;1249;51.270;6.756;2022-10-17T10:21:54;112.83;;;105.97;;
2476;SDS011;1249;51.270;6.756;2022-10-17T10:24:21;122.70;;;116.87;;
2476;SDS011;1249;51.270;6.756;2022-10-17T10:26:50;125.47;;;117.87;;
2476;SDS011;1249;51.270;6.756;2022-10-17T10:29:20;110.10;;;103.70;;
2476;SDS011;1249;51.270;6.756;2022-10-17T10:31:52;122.93;;;116.63;;
2476;SDS011;1249;51.270;6.756;2022-10-17T10:34:19;114.37;;;108.27;;
2476;SDS011;1249;51.270;6.756;2022-10-17T10:36:51;109.67;;;104.27;;
2476;SDS011;1249;51.270;6.756;2022-10-17T10:39:35;120.57;;;113.57;;
2476;SDS011;1249;51.270;6.756;2022-10-17T10:42:07;101.30;;;95.70;;
2476;SDS011;1249;51.270;6.756;2022-10-17T10:44:43;110.87;;;104.50;;
2476;SDS011;1249;51.270;6.756;2022-10-17T10:47:19;127.87;;;119.27;;
2476;SDS011;1249;51.270;6.756;2022-10-17T10:49:49;99.57;;;93.77;;
2476;SDS011;1249;51.270;6.756;2022-10-17T10:52:19;116.87;;;110.50;;
2476;SDS011;1249;51.270;6.756;2022-10-17T10:54:56;124.17;;;117.00;;
2476;SDS011;1249;51.270;6.756;2022-10-17T10:57:29;132.53;;;125.37;;
2476;SDS011;1249;51.270;6.756;2022-10-17T11:00:03;113.00;;;106.90;;
2476;SDS011;1249;51.270;6.756;2022-10-17T11:02:41;117.83;;;110.73;;
2476;SDS011;1249;51.270;6.756;2022-10-17T11:05:15;101.87;;;96.57;;
2476;SDS011;1249;51.270;6.756;2022-10-17T11:07:49;89.23;;;84.47;;
2476;SDS011;1249;51.270;6.756;2022-10-17T11:10:21;114.20;;;107.77;;
2476;SDS011;1249;51.270;6.756;2022-10-17T11:12:51;105.30;;;98.63;;
2476;SDS011;1249;51.270;6.756;2022-10-17T11:15:24;117.83;;;111.63;;
2476;SDS011;1249;51.270;6.756;2022-10-17T11:17:58;103.53;;;97.97;;
2476;SDS011;1249;51.270;6.756;2022-10-17T11:20:28;116.57;;;110.93;;
2476;SDS011;1249;51.270;6.756;2022-10-17T11:23:01;110.87;;;104.00;;
2476;SDS011;1249;51.270;6.756;2022-10-17T11:25:37;114.17;;;108.70;;
2476;SDS011;1249;51.270;6.756;2022-10-17T11:28:10;104.17;;;98.30;;
2476;SDS011;1249;51.270;6.756;2022-10-17T11:30:41;109.20;;;103.63;;
2476;SDS011;1249;51.270;6.756;2022-10-17T11:33:16;111.77;;;106.53;;
2476;SDS011;1249;51.270;6.756;2022-10-17T11:35:49;119.27;;;112.50;;
2476;SDS011;1249;51.270;6.756;2022-10-17T11:38:20;131.53;;;125.03;;
2476;SDS011;1249;51.270;6.756;2022-10-17T11:40:54;99.37;;;93.50;;
2476;SDS011;1249;51.270;6.756;2022-10-17T11:43:24;111.27;;;105.17;;
2476;SDS011;1249;51.270;6.756;2022-10-17T11:45:57;106.57;;;100.60;;
2476;SDS011;1249;51.270;6.756;2022-10-17T11:48:29;119.67;;;113.30;;
2476;SDS011;1249;51.270;6.756;2022-10-17T11:51:02;98.97;;;93.63;;
2476;SDS011;1249;51.270;6.756;2022-10-17T11:53:38;114.13;;;107.43;;
2476;SDS011;1249;51.270;6.756;2022-10-17T11:56:13;101.50;;;95.83;;
2476;SDS011;1249;51.270;6.756;2022-10-17T11:58:48;94.47;;;89.57;;
2476;SDS011;1249;51.270;6.756;2022-10-17T12:01:21;115.30;;;109.13;;
2476;SDS011;1249;51.270;6.756;2022-10-17T12:04:03;126.47;;;119.87;;
2476;SDS011;1249;51.270;6.756;2022-10-17T12:06:47;105.00;;;99.17;;
2476;SDS011;1249;51.270;6.756;2022-10-17T12:09:23;97.43;;;92.27;;
2476;SDS011;1249;51.270;6.756;2022-10-17T12:11:57;80.50;;;76.53;;
2476;SDS011;1249;51.270;6.756;2022-10-17T12:14:38;114.20;;;107.33;;
2476;SDS011;1249;51.270;6.756;2022-10-17T12:17:20;107.53;;;101.33;;
2476;SDS011;1249;51.270;6.756;2022-10-17T12:19:57;99.70;;;94.60;;
2476;SDS011;1249;51.270;6.756;2022-10-17T12:22:50;76.23;;;71.77;;
2476;SDS011;1249;51.270;6.756;2022-10-17T12:25:19;102.10;;;96.80;;
2476;SDS011;1249;51.270;6.756;2022-10-17T12:27:48;103.13;;;97.70;;
2476;SDS011;1249;51.270;6.756;2022-10-17T12:30:24;103.43;;;98.40;;
2476;SDS011;1249;51.270;6.756;2022-10-17T12:32:56;110.27;;;104.60;;
2476;SDS011;1249;51.270;6.756;2022-10-17T12:35:28;69.73;;;65.50;;
2476;SDS011;1249;51.270;6.756;2022-10-17T12:38:00;91.37;;;86.13;;
2476;SDS011;1249;51.270;6.756;2022-10-17T12:40:46;81.73;;;76.60;;
2476;SDS011;1249;51.270;6.756;2022-10-17T12:49:35;72.67;;;68.60;;
2476;SDS011;1249;51.270;6.756;2022-10-17T12:55:15;67.77;;;63.17;;
2476;SDS011;1249;51.270;6.756;2022-10-17T12:57:49;97.67;;;92.40;;
2476;SDS011;1249;51.270;6.756;2022-10-17T13:00:21;66.73;;;63.27;;
2476;SDS011;1249;51.270;6.756;2022-10-17T13:02:53;94.43;;;88.97;;
2476;SDS011;1249;51.270;6.756;2022-10-17T13:05:26;80.57;;;75.87;;
2476;SDS011;1249;51.270;6.756;2022-10-17T13:07:58;102.57;;;96.80;;
2476;SDS011;1249;51.270;6.756;2022-10-17T13:10:27;91.33;;;86.83;;
2476;SDS011;1249;51.270;6.756;2022-10-17T13:12:59;78.83;;;74.83;;
2476;SDS011;1249;51.270;6.756;2022-10-17T13:15:31;94.00;;;89.10;;
2476;SDS011;1249;51.270;6.756;2022-10-17T13:18:01;133.03;;;126.37;;
2476;SDS011;1249;51.270;6.756;2022-10-17T13:20:28;108.27;;;102.27;;
2476;SDS011;1249;51.270;6.756;2022-10-17T13:22:57;109.83;;;104.03;;
2476;SDS011;1249;51.270;6.756;2022-10-17T13:25:25;118.17;;;111.20;;
2476;SDS011;1249;51.270;6.756;2022-10-17T13:28:03;88.30;;;83.27;;
2476;SDS011;1249;51.270;6.756;2022-10-17T13:30:32;91.17;;;86.60;;
2476;SDS011;1249;51.270;6.756;2022-10-17T13:33:01;106.80;;;101.33;;
2476;SDS011;1249;51.270;6.756;2022-10-17T13:35:29;108.63;;;102.70;;
2476;SDS011;1249;51.270;6.756;2022-10-17T13:38:01;70.37;;;66.17;;
2476;SDS011;1249;51.270;6.756;2022-10-17T13:40:31;86.57;;;81.73;;
2476;SDS011;1249;51.270;6.756;2022-10-17T13:43:09;89.97;;;85.20;;
2476;SDS011;1249;51.270;6.756;2022-10-17T13:45:44;66.70;;;62.63;;
2476;SDS011;1249;51.270;6.756;2022-10-17T13:48:17;88.13;;;83.70;;
2476;SDS011;1249;51.270;6.756;2022-10-17T13:50:46;83.43;;;78.93;;
2476;SDS011;1249;51.270;6.756;2022-10-17T13:53:17;88.67;;;83.37;;
2476;SDS011;1249;51.270;6.756;2022-10-17T13:55:50;78.40;;;73.93;;
2476;SDS011;1249;51.270;6.756;2022-10-17T13:58:21;111.43;;;105.63;;
2476;SDS011;1249;51.270;6.756;2022-10-17T14:00:48;104.97;;;99.17;;
2476;SDS011;1249;51.270;6.756;2022-10-17T14:03:17;120.03;;;113.37;;
2476;SDS011;1249;51.270;6.756;2022-10-17T14:05:58;103.03;;;97.13;;
2476;SDS011;1249;51.270;6.756;2022-10-17T14:08:49;107.03;;;99.37;;
2476;SDS011;1249;51.270;6.756;2022-10-17T14:11:23;99.00;;;93.73;;
2476;SDS011;1249;51.270;6.756;2022-10-17T14:13:54;100.03;;;94.90;;
2476;SDS011;1249;51.270;6.756;2022-10-17T14:16:23;90.87;;;85.70;;
2476;SDS011;1249;51.270;6.756;2022-10-17T14:18:51;97.20;;;91.67;;
2476;SDS011;1249;51.270;6.756;2022-10-17T14:21:23;88.00;;;83.03;;
2476;SDS011;1249;51.270;6.756;2022-10-17T14:24:10;106.83;;;101.33;;
2476;SDS011;1249;51.270;6.756;2022-10-17T14:26:45;96.63;;;91.50;;
2476;SDS011;1249;51.270;6.756;2022-10-17T14:29:17;64.83;;;60.37;;
2476;SDS011;1249;51.270;6.756;2022-10-17T14:31:47;82.37;;;77.63;;
2476;SDS011;1249;51.270;6.756;2022-10-17T14:34:19;100.83;;;94.93;;
2476;SDS011;1249;51.270;6.756;2022-10-17T14:36:50;102.50;;;96.77;;
2476;SDS011;1249;51.270;6.756;2022-10-17T14:39:19;89.27;;;85.17;;
2476;SDS011;1249;51.270;6.756;2022-10-17T14:41:48;95.50;;;89.73;;
2476;SDS011;1249;51.270;6.756;2022-10-17T14:44:20;103.27;;;97.87;;
2476;SDS011;1249;51.270;6.756;2022-10-17T14:46:52;111.10;;;105.40;;
2476;SDS011;1249;51.270;6.756;2022-10-17T14:49:27;124.37;;;118.03;;
2476;SDS011;1249;51.270;6.756;2022-10-17T14:54:51;98.80;;;92.67;;
2476;SDS011;1249;51.270;6.756;2022-10-17T14:57:19;104.43;;;98.73;;
2476;SDS011;1249;51.270;6.756;2022-10-17T14:59:49;128.03;;;121.33;;
2476;SDS011;1249;51.270;6.756;2022-10-17T15:02:16;98.90;;;93.43;;
2476;SDS011;1249;51.270;6.756;2022-10-17T15:04:42;91.00;;;85.77;;
2476;SDS011;1249;51.270;6.756;2022-10-17T15:07:11;106.20;;;100.13;;
2476;SDS011;1249;51.270;6.756;2022-10-17T15:09:39;86.70;;;81.97;;
2476;SDS011;1249;51.270;6.756;2022-10-17T15:12:11;99.97;;;94.87;;